Berit — ZDHX2 — position and weather

sailwx.info

Track history (hours):
 
Tides and Currents Weather Stations Pressure Air Temp Water Temp Dewpoint Dewpoint Depression Visibility Wind Speed Wind Dir Waves Ship Positions

Berit

Last reported at 2014-Oct-31 19:32 UTC. Time now 2014-Oct-31 20:13 UTC.
Position N 58°57' E 005°45'.

Length 83 m; draft 4.8 m.

Type: Cargo ship. MMSI: 236386000.

Date/timePositionNaut miles runAvg speedWind from/ knotsBaromVisibWave heightAir tempDewpointWater temp
2014-Oct-31 19:32N 58°57' E 005°45'0 0.0
2014-Oct-31 18:32N 58°57' E 005°45'0 0.0
2014-Oct-31 17:32N 58°57' E 005°45'0 0.0
2014-Oct-31 16:32N 58°57' E 005°45'0 0.0
2014-Oct-31 15:32N 58°57' E 005°45'0 0.0
2014-Oct-31 14:32N 58°57' E 005°45'0 0.0
2014-Oct-31 13:32N 58°57' E 005°45'0 0.0
2014-Oct-31 12:33N 58°57' E 005°45'0 0.0
2014-Oct-31 11:33N 58°57' E 005°45'0 0.0
2014-Oct-31 10:33N 58°57' E 005°45'0 0.0
2014-Oct-31 09:33N 58°57' E 005°45'0 0.0
2014-Oct-31 08:33N 58°57' E 005°45'0 0.0
2014-Oct-31 07:33N 58°57' E 005°45'0 0.0
2014-Oct-31 06:33N 58°57' E 005°45'0 0.0
2014-Oct-31 05:33N 58°57' E 005°45'0 0.0
2014-Oct-31 04:33N 58°57' E 005°45'0 0.0
2014-Oct-31 03:33N 58°57' E 005°45'0 0.0
2014-Oct-31 02:33N 58°57' E 005°45'0 0.0
2014-Oct-31 01:33N 58°57' E 005°45'0 0.0
2014-Oct-31 00:33N 58°57' E 005°45'0 0.0
2014-Oct-30 23:33N 58°57' E 005°45'0 0.0
2014-Oct-30 22:33N 58°57' E 005°45'0 0.0
2014-Oct-30 21:33N 58°57' E 005°45'0 0.0
2014-Oct-30 20:34N 58°57' E 005°45'4 4.3
2014-Oct-30 19:34N 59°01' E 005°44'6 5.8
2014-Oct-30 18:33N 58°60' E 005°33'9 9.4
2014-Oct-30 17:34N 58°50' E 005°29'283 9.3
2014-Oct-29 11:09N 54°08' E 004°60'5 8.8
2014-Oct-29 10:32N 54°03' E 004°58'11 8.8
2014-Oct-29 09:18N 53°52' E 004°55'50 9.6
2014-Oct-29 04:04N 53°05' E 004°25'5 9.1
2014-Oct-29 03:33N 53°01' E 004°22'9 8.8
2014-Oct-29 02:34N 52°53' E 004°16'9 8.6
2014-Oct-29 01:33N 52°45' E 004°08'8 8.5
2014-Oct-29 00:33N 52°38' E 004°01'8 8.3
2014-Oct-28 23:33N 52°31' E 003°54'8 8.2
2014-Oct-28 22:33N 52°23' E 003°52'8 8.3
2014-Oct-28 21:34N 52°14' E 003°52'9 9.3
2014-Oct-28 20:33N 52°05' E 003°54'8 7.9
2014-Oct-28 19:33N 51°60' E 004°03'1110.7
2014-Oct-28 18:33N 51°54' E 004°18'5 5.3
2014-Oct-28 17:32N 51°53' E 004°26'0 0.0
2014-Oct-28 16:32N 51°53' E 004°26'0 0.0
2014-Oct-28 15:32N 51°53' E 004°26'0 0.0
2014-Oct-28 14:32N 51°53' E 004°26'0 0.1
2014-Oct-28 13:33N 51°53' E 004°27'1 1.0
2014-Oct-28 12:32N 51°54' E 004°27'0 0.0
2014-Oct-28 11:32N 51°54' E 004°27'0 0.0
2014-Oct-28 10:32N 51°54' E 004°27'0 0.0
2014-Oct-28 09:32N 51°54' E 004°27'0 0.0
2014-Oct-28 08:32N 51°54' E 004°27'0 0.0
2014-Oct-28 07:32N 51°54' E 004°27'0 0.0
2014-Oct-28 06:32N 51°54' E 004°27'0 0.0
2014-Oct-28 05:32N 51°54' E 004°27'0 0.0
2014-Oct-28 04:32N 51°54' E 004°27'0 0.0
2014-Oct-28 03:32N 51°54' E 004°27'0 0.0
2014-Oct-28 02:32N 51°54' E 004°27'0 0.0
2014-Oct-28 01:32N 51°54' E 004°27'0 0.0
2014-Oct-28 00:32N 51°54' E 004°27'0 0.0
2014-Oct-27 23:32N 51°54' E 004°27'0 0.0
2014-Oct-27 22:32N 51°54' E 004°27'0 0.0
2014-Oct-27 21:32N 51°54' E 004°27'0 0.0
2014-Oct-27 20:32N 51°54' E 004°27'0 0.0
2014-Oct-27 19:32N 51°54' E 004°27'0 0.0
2014-Oct-27 18:32N 51°54' E 004°27'0 0.0
2014-Oct-27 17:32N 51°54' E 004°27'0 0.0
2014-Oct-27 16:32N 51°54' E 004°27'0 0.0
2014-Oct-27 15:32N 51°54' E 004°27'0 0.0
2014-Oct-27 14:32N 51°54' E 004°27'0 0.0
2014-Oct-27 13:32N 51°54' E 004°27'0 0.0
2014-Oct-27 12:32N 51°54' E 004°27'0 0.0
2014-Oct-27 11:32N 51°54' E 004°27'0 0.3
2014-Oct-27 10:33N 51°54' E 004°27'1 1.0
2014-Oct-27 09:33N 51°53' E 004°26'0 0.0
2014-Oct-27 08:33N 51°53' E 004°26'0 0.0
2014-Oct-27 07:33N 51°53' E 004°26'0 0.0
2014-Oct-27 06:33N 51°53' E 004°26'0 0.4
2014-Oct-27 05:34N 51°53' E 004°26'1 1.2
2014-Oct-27 04:31N 51°54' E 004°28'0 0.0
2014-Oct-27 03:31N 51°54' E 004°28'0 0.0
2014-Oct-27 02:31N 51°54' E 004°28'0 0.0
2014-Oct-27 01:31N 51°54' E 004°28'0 0.0
2014-Oct-27 00:31N 51°54' E 004°28'0 0.0
2014-Oct-26 23:31N 51°54' E 004°28'0 0.0
2014-Oct-26 22:31N 51°54' E 004°28'0 0.0
2014-Oct-26 21:31N 51°54' E 004°28'0 0.0
2014-Oct-26 20:31N 51°54' E 004°28'0 0.0
2014-Oct-26 19:31N 51°54' E 004°28'0 0.0
2014-Oct-26 18:31N 51°54' E 004°28'0 0.0
2014-Oct-26 17:31N 51°54' E 004°28'0 0.0
2014-Oct-26 16:31N 51°54' E 004°28'0 0.0
2014-Oct-26 15:31N 51°54' E 004°28'0 0.0
2014-Oct-26 14:31N 51°54' E 004°28'0 0.0
2014-Oct-26 13:31N 51°54' E 004°28'0 0.0
2014-Oct-26 12:31N 51°54' E 004°28'0 0.0
2014-Oct-26 11:31N 51°54' E 004°28'0 0.0
2014-Oct-26 10:31N 51°54' E 004°28'0 0.0
2014-Oct-26 09:31N 51°54' E 004°28'0 0.0
2014-Oct-26 08:31N 51°54' E 004°28'0 0.0
2014-Oct-26 07:31N 51°54' E 004°28'0 0.0
2014-Oct-26 06:31N 51°54' E 004°28'0 0.0
2014-Oct-26 05:31N 51°54' E 004°28'0 0.0
2014-Oct-26 04:31N 51°54' E 004°28'0 0.0
2014-Oct-26 03:31N 51°54' E 004°28'0 0.0
2014-Oct-26 02:31N 51°54' E 004°28'0 0.0
2014-Oct-26 01:31N 51°54' E 004°28'0 0.0
2014-Oct-26 00:31N 51°54' E 004°28'0 0.0
2014-Oct-25 23:31N 51°54' E 004°28'0 0.0
2014-Oct-25 22:31N 51°54' E 004°28'0 0.0
2014-Oct-25 21:31N 51°54' E 004°28'0 0.0
2014-Oct-25 20:31N 51°54' E 004°28'0 0.0
2014-Oct-25 19:31N 51°54' E 004°28'0 0.0
2014-Oct-25 18:31N 51°54' E 004°28'0 0.0
2014-Oct-25 17:31N 51°54' E 004°28'0 0.2
2014-Oct-25 16:33N 51°54' E 004°28'9 9.5
2014-Oct-25 15:34N 51°56' E 004°13'1010.4
2014-Oct-25 14:33N 52°00' E 003°58'8 8.1
2014-Oct-25 13:33N 52°05' E 003°47'10 9.5
2014-Oct-25 12:31N 52°15' E 003°47'59 9.9
2014-Oct-25 06:33N 53°10' E 004°22'9 8.4
2014-Oct-25 05:33N 53°18' E 004°28'283 8.6
2014-Oct-23 20:28N 58°00' E 005°08'7 8.0
2014-Oct-23 19:33N 58°07' E 005°10'8 7.7
2014-Oct-23 18:33N 58°15' E 005°10'32 7.7
2014-Oct-23 14:25N 58°46' E 005°23'6 7.3
2014-Oct-23 13:33N 58°51' E 005°30'8 8.3
2014-Oct-23 12:33N 58°59' E 005°33'6 6.0
2014-Oct-23 11:33N 59°01' E 005°44'4 4.4
2014-Oct-23 10:33N 58°57' E 005°45'0 0.0
2014-Oct-23 09:33N 58°57' E 005°45'0 0.0
2014-Oct-23 08:33N 58°57' E 005°45'0 0.0
2014-Oct-23 07:33N 58°57' E 005°45'0 0.0
2014-Oct-23 06:33N 58°57' E 005°45'0 0.0
2014-Oct-23 05:33N 58°57' E 005°45'0 0.0
2014-Oct-23 04:33N 58°57' E 005°45'0 0.0
2014-Oct-23 03:33N 58°57' E 005°45'0 0.0
2014-Oct-23 02:33N 58°57' E 005°45'0 0.0
2014-Oct-23 01:33N 58°57' E 005°45'0 0.0
2014-Oct-23 00:33N 58°57' E 005°45'0 0.0
2014-Oct-22 23:33N 58°57' E 005°45'0 0.0
2014-Oct-22 22:33N 58°57' E 005°45'0 0.0
2014-Oct-22 21:33N 58°57' E 005°45'0 0.0
2014-Oct-22 20:33N 58°57' E 005°45'0 0.0
2014-Oct-22 19:33N 58°57' E 005°45'0 0.0
2014-Oct-22 18:33N 58°57' E 005°45'0 0.0
2014-Oct-22 17:33N 58°57' E 005°45'0 0.0
2014-Oct-22 16:33N 58°57' E 005°45'0 0.0
2014-Oct-22 15:33N 58°57' E 005°45'0 0.0
2014-Oct-22 14:33N 58°57' E 005°45'0 0.0
2014-Oct-22 13:33N 58°57' E 005°45'0 0.0
2014-Oct-22 12:33N 58°57' E 005°45'0 0.0
2014-Oct-22 11:33N 58°57' E 005°45'0 0.0
2014-Oct-22 10:33N 58°57' E 005°45'0 0.0
2014-Oct-22 09:33N 58°57' E 005°45'0 0.0
2014-Oct-22 08:33N 58°57' E 005°45'0 0.0
2014-Oct-22 07:30N 58°57' E 005°45'0 0.0
2014-Oct-22 06:33N 58°57' E 005°45'0 0.0
2014-Oct-22 05:33N 58°57' E 005°45'0 0.0
2014-Oct-22 04:33N 58°57' E 005°45'0 0.0
2014-Oct-22 03:33N 58°57' E 005°45'0 0.0
2014-Oct-22 02:33N 58°57' E 005°45'0 0.0
2014-Oct-22 01:33N 58°57' E 005°45'0 0.0
2014-Oct-22 00:33N 58°57' E 005°45'0 0.0
2014-Oct-21 23:33N 58°57' E 005°45'0 0.0
2014-Oct-21 22:33N 58°57' E 005°45'0 0.0
2014-Oct-21 21:33N 58°57' E 005°45'0 0.0
2014-Oct-21 20:33N 58°57' E 005°45'0 0.0
2014-Oct-21 19:33N 58°57' E 005°45'  
Track history (hours):
 
Tides and Currents Weather Stations Pressure Air Temp Water Temp Dewpoint Dewpoint Depression Visibility Wind Speed Wind Dir Waves Ship Positions

Berit

Last reported at 2014-Oct-31 19:32 UTC. Time now 2014-Oct-31 20:13 UTC.
Position N 58°57' E 005°45'.

Length 83 m; draft 4.8 m.

Type: Cargo ship. MMSI: 236386000.

Date/timePositionNaut miles runAvg speedWind from/ knotsBaromVisibWave heightAir tempDewpointWater temp
2014-Oct-31 19:32N 58°57' E 005°45'0 0.0
2014-Oct-31 18:32N 58°57' E 005°45'0 0.0
2014-Oct-31 17:32N 58°57' E 005°45'0 0.0
2014-Oct-31 16:32N 58°57' E 005°45'0 0.0
2014-Oct-31 15:32N 58°57' E 005°45'0 0.0
2014-Oct-31 14:32N 58°57' E 005°45'0 0.0
2014-Oct-31 13:32N 58°57' E 005°45'0 0.0
2014-Oct-31 12:33N 58°57' E 005°45'0 0.0
2014-Oct-31 11:33N 58°57' E 005°45'0 0.0
2014-Oct-31 10:33N 58°57' E 005°45'0 0.0
2014-Oct-31 09:33N 58°57' E 005°45'0 0.0
2014-Oct-31 08:33N 58°57' E 005°45'0 0.0
2014-Oct-31 07:33N 58°57' E 005°45'0 0.0
2014-Oct-31 06:33N 58°57' E 005°45'0 0.0
2014-Oct-31 05:33N 58°57' E 005°45'0 0.0
2014-Oct-31 04:33N 58°57' E 005°45'0 0.0
2014-Oct-31 03:33N 58°57' E 005°45'0 0.0
2014-Oct-31 02:33N 58°57' E 005°45'0 0.0
2014-Oct-31 01:33N 58°57' E 005°45'0 0.0
2014-Oct-31 00:33N 58°57' E 005°45'0 0.0
2014-Oct-30 23:33N 58°57' E 005°45'0 0.0
2014-Oct-30 22:33N 58°57' E 005°45'0 0.0
2014-Oct-30 21:33N 58°57' E 005°45'0 0.0
2014-Oct-30 20:34N 58°57' E 005°45'4 4.3
2014-Oct-30 19:34N 59°01' E 005°44'6 5.8
2014-Oct-30 18:33N 58°60' E 005°33'9 9.4
2014-Oct-30 17:34N 58°50' E 005°29'283 9.3
2014-Oct-29 11:09N 54°08' E 004°60'5 8.8
2014-Oct-29 10:32N 54°03' E 004°58'11 8.8
2014-Oct-29 09:18N 53°52' E 004°55'50 9.6
2014-Oct-29 04:04N 53°05' E 004°25'5 9.1
2014-Oct-29 03:33N 53°01' E 004°22'9 8.8
2014-Oct-29 02:34N 52°53' E 004°16'9 8.6
2014-Oct-29 01:33N 52°45' E 004°08'8 8.5
2014-Oct-29 00:33N 52°38' E 004°01'8 8.3
2014-Oct-28 23:33N 52°31' E 003°54'8 8.2
2014-Oct-28 22:33N 52°23' E 003°52'8 8.3
2014-Oct-28 21:34N 52°14' E 003°52'9 9.3
2014-Oct-28 20:33N 52°05' E 003°54'8 7.9
2014-Oct-28 19:33N 51°60' E 004°03'1110.7
2014-Oct-28 18:33N 51°54' E 004°18'5 5.3
2014-Oct-28 17:32N 51°53' E 004°26'0 0.0
2014-Oct-28 16:32N 51°53' E 004°26'0 0.0
2014-Oct-28 15:32N 51°53' E 004°26'0 0.0
2014-Oct-28 14:32N 51°53' E 004°26'0 0.1
2014-Oct-28 13:33N 51°53' E 004°27'1 1.0
2014-Oct-28 12:32N 51°54' E 004°27'0 0.0
2014-Oct-28 11:32N 51°54' E 004°27'0 0.0
2014-Oct-28 10:32N 51°54' E 004°27'0 0.0
2014-Oct-28 09:32N 51°54' E 004°27'0 0.0
2014-Oct-28 08:32N 51°54' E 004°27'0 0.0
2014-Oct-28 07:32N 51°54' E 004°27'0 0.0
2014-Oct-28 06:32N 51°54' E 004°27'0 0.0
2014-Oct-28 05:32N 51°54' E 004°27'0 0.0
2014-Oct-28 04:32N 51°54' E 004°27'0 0.0
2014-Oct-28 03:32N 51°54' E 004°27'0 0.0
2014-Oct-28 02:32N 51°54' E 004°27'0 0.0
2014-Oct-28 01:32N 51°54' E 004°27'0 0.0
2014-Oct-28 00:32N 51°54' E 004°27'0 0.0
2014-Oct-27 23:32N 51°54' E 004°27'0 0.0
2014-Oct-27 22:32N 51°54' E 004°27'0 0.0
2014-Oct-27 21:32N 51°54' E 004°27'0 0.0
2014-Oct-27 20:32N 51°54' E 004°27'0 0.0
2014-Oct-27 19:32N 51°54' E 004°27'0 0.0
2014-Oct-27 18:32N 51°54' E 004°27'0 0.0
2014-Oct-27 17:32N 51°54' E 004°27'0 0.0
2014-Oct-27 16:32N 51°54' E 004°27'0 0.0
2014-Oct-27 15:32N 51°54' E 004°27'0 0.0
2014-Oct-27 14:32N 51°54' E 004°27'0 0.0
2014-Oct-27 13:32N 51°54' E 004°27'0 0.0
2014-Oct-27 12:32N 51°54' E 004°27'0 0.0
2014-Oct-27 11:32N 51°54' E 004°27'0 0.3
2014-Oct-27 10:33N 51°54' E 004°27'1 1.0
2014-Oct-27 09:33N 51°53' E 004°26'0 0.0
2014-Oct-27 08:33N 51°53' E 004°26'0 0.0
2014-Oct-27 07:33N 51°53' E 004°26'0 0.0
2014-Oct-27 06:33N 51°53' E 004°26'0 0.4
2014-Oct-27 05:34N 51°53' E 004°26'1 1.2
2014-Oct-27 04:31N 51°54' E 004°28'0 0.0
2014-Oct-27 03:31N 51°54' E 004°28'0 0.0
2014-Oct-27 02:31N 51°54' E 004°28'0 0.0
2014-Oct-27 01:31N 51°54' E 004°28'0 0.0
2014-Oct-27 00:31N 51°54' E 004°28'0 0.0
2014-Oct-26 23:31N 51°54' E 004°28'0 0.0
2014-Oct-26 22:31N 51°54' E 004°28'0 0.0
2014-Oct-26 21:31N 51°54' E 004°28'0 0.0
2014-Oct-26 20:31N 51°54' E 004°28'0 0.0
2014-Oct-26 19:31N 51°54' E 004°28'0 0.0
2014-Oct-26 18:31N 51°54' E 004°28'0 0.0
2014-Oct-26 17:31N 51°54' E 004°28'0 0.0
2014-Oct-26 16:31N 51°54' E 004°28'0 0.0
2014-Oct-26 15:31N 51°54' E 004°28'0 0.0
2014-Oct-26 14:31N 51°54' E 004°28'0 0.0
2014-Oct-26 13:31N 51°54' E 004°28'0 0.0
2014-Oct-26 12:31N 51°54' E 004°28'0 0.0
2014-Oct-26 11:31N 51°54' E 004°28'0 0.0
2014-Oct-26 10:31N 51°54' E 004°28'0 0.0
2014-Oct-26 09:31N 51°54' E 004°28'0 0.0
2014-Oct-26 08:31N 51°54' E 004°28'0 0.0
2014-Oct-26 07:31N 51°54' E 004°28'0 0.0
2014-Oct-26 06:31N 51°54' E 004°28'0 0.0
2014-Oct-26 05:31N 51°54' E 004°28'0 0.0
2014-Oct-26 04:31N 51°54' E 004°28'0 0.0
2014-Oct-26 03:31N 51°54' E 004°28'0 0.0
2014-Oct-26 02:31N 51°54' E 004°28'0 0.0
2014-Oct-26 01:31N 51°54' E 004°28'0 0.0
2014-Oct-26 00:31N 51°54' E 004°28'0 0.0
2014-Oct-25 23:31N 51°54' E 004°28'0 0.0
2014-Oct-25 22:31N 51°54' E 004°28'0 0.0
2014-Oct-25 21:31N 51°54' E 004°28'0 0.0
2014-Oct-25 20:31N 51°54' E 004°28'0 0.0
2014-Oct-25 19:31N 51°54' E 004°28'0 0.0
2014-Oct-25 18:31N 51°54' E 004°28'0 0.0
2014-Oct-25 17:31N 51°54' E 004°28'0 0.2
2014-Oct-25 16:33N 51°54' E 004°28'9 9.5
2014-Oct-25 15:34N 51°56' E 004°13'1010.4
2014-Oct-25 14:33N 52°00' E 003°58'8 8.1
2014-Oct-25 13:33N 52°05' E 003°47'10 9.5
2014-Oct-25 12:31N 52°15' E 003°47'59 9.9
2014-Oct-25 06:33N 53°10' E 004°22'9 8.4
2014-Oct-25 05:33N 53°18' E 004°28'283 8.6
2014-Oct-23 20:28N 58°00' E 005°08'7 8.0
2014-Oct-23 19:33N 58°07' E 005°10'8 7.7
2014-Oct-23 18:33N 58°15' E 005°10'32 7.7
2014-Oct-23 14:25N 58°46' E 005°23'6 7.3
2014-Oct-23 13:33N 58°51' E 005°30'8 8.3
2014-Oct-23 12:33N 58°59' E 005°33'6 6.0
2014-Oct-23 11:33N 59°01' E 005°44'4 4.4
2014-Oct-23 10:33N 58°57' E 005°45'0 0.0
2014-Oct-23 09:33N 58°57' E 005°45'0 0.0
2014-Oct-23 08:33N 58°57' E 005°45'0 0.0
2014-Oct-23 07:33N 58°57' E 005°45'0 0.0
2014-Oct-23 06:33N 58°57' E 005°45'0 0.0
2014-Oct-23 05:33N 58°57' E 005°45'0 0.0
2014-Oct-23 04:33N 58°57' E 005°45'0 0.0
2014-Oct-23 03:33N 58°57' E 005°45'0 0.0
2014-Oct-23 02:33N 58°57' E 005°45'0 0.0
2014-Oct-23 01:33N 58°57' E 005°45'0 0.0
2014-Oct-23 00:33N 58°57' E 005°45'0 0.0
2014-Oct-22 23:33N 58°57' E 005°45'0 0.0
2014-Oct-22 22:33N 58°57' E 005°45'0 0.0
2014-Oct-22 21:33N 58°57' E 005°45'0 0.0
2014-Oct-22 20:33N 58°57' E 005°45'0 0.0
2014-Oct-22 19:33N 58°57' E 005°45'0 0.0
2014-Oct-22 18:33N 58°57' E 005°45'0 0.0
2014-Oct-22 17:33N 58°57' E 005°45'0 0.0
2014-Oct-22 16:33N 58°57' E 005°45'0 0.0
2014-Oct-22 15:33N 58°57' E 005°45'0 0.0
2014-Oct-22 14:33N 58°57' E 005°45'0 0.0
2014-Oct-22 13:33N 58°57' E 005°45'0 0.0
2014-Oct-22 12:33N 58°57' E 005°45'0 0.0
2014-Oct-22 11:33N 58°57' E 005°45'0 0.0
2014-Oct-22 10:33N 58°57' E 005°45'0 0.0
2014-Oct-22 09:33N 58°57' E 005°45'0 0.0
2014-Oct-22 08:33N 58°57' E 005°45'0 0.0
2014-Oct-22 07:30N 58°57' E 005°45'0 0.0
2014-Oct-22 06:33N 58°57' E 005°45'0 0.0
2014-Oct-22 05:33N 58°57' E 005°45'0 0.0
2014-Oct-22 04:33N 58°57' E 005°45'0 0.0
2014-Oct-22 03:33N 58°57' E 005°45'0 0.0
2014-Oct-22 02:33N 58°57' E 005°45'0 0.0
2014-Oct-22 01:33N 58°57' E 005°45'0 0.0
2014-Oct-22 00:33N 58°57' E 005°45'0 0.0
2014-Oct-21 23:33N 58°57' E 005°45'0 0.0
2014-Oct-21 22:33N 58°57' E 005°45'0 0.0
2014-Oct-21 21:33N 58°57' E 005°45'0 0.0
2014-Oct-21 20:33N 58°57' E 005°45'0 0.0
2014-Oct-21 19:33N 58°57' E 005°45'  

Dump ship's entire track history